sensor_id;sensor_type;location;lat;lon;timestamp;P1;durP1;ratioP1;P2;durP2;ratioP2
69594;SDS011;56800;52.142;5.364;2024-03-23T00:52:16;33.75;;;8.20;;
69594;SDS011;56800;52.142;5.364;2024-03-23T00:54:42;31.20;;;8.40;;
69594;SDS011;56800;52.142;5.364;2024-03-23T00:57:08;26.70;;;8.00;;
69594;SDS011;56800;52.142;5.364;2024-03-23T00:59:33;24.47;;;7.87;;
69594;SDS011;56800;52.142;5.364;2024-03-23T01:01:59;35.63;;;8.30;;
69594;SDS011;56800;52.142;5.364;2024-03-23T01:04:25;28.37;;;7.87;;
69594;SDS011;56800;52.142;5.364;2024-03-23T01:06:51;36.08;;;8.63;;
69594;SDS011;56800;52.142;5.364;2024-03-23T01:09:16;23.80;;;7.40;;
69594;SDS011;56800;52.142;5.364;2024-03-23T01:11:42;36.58;;;8.05;;
69594;SDS011;56800;52.142;5.364;2024-03-23T01:14:08;26.33;;;8.00;;
69594;SDS011;56800;52.142;5.364;2024-03-23T01:16:34;34.85;;;7.93;;
69594;SDS011;56800;52.142;5.364;2024-03-23T01:18:59;29.17;;;8.17;;
69594;SDS011;56800;52.142;5.364;2024-03-23T01:21:25;28.52;;;8.48;;
69594;SDS011;56800;52.142;5.364;2024-03-23T01:23:51;37.00;;;9.60;;
69594;SDS011;56800;52.142;5.364;2024-03-23T01:26:17;26.77;;;8.38;;
69594;SDS011;56800;52.142;5.364;2024-03-23T01:28:42;25.80;;;8.20;;
69594;SDS011;56800;52.142;5.364;2024-03-23T01:31:08;34.00;;;8.80;;
69594;SDS011;56800;52.142;5.364;2024-03-23T01:33:35;27.77;;;8.43;;
69594;SDS011;56800;52.142;5.364;2024-03-23T01:36:00;33.73;;;8.63;;
69594;SDS011;56800;52.142;5.364;2024-03-23T01:38:26;33.15;;;8.25;;
69594;SDS011;56800;52.142;5.364;2024-03-23T01:40:58;24.10;;;8.07;;
69594;SDS011;56800;52.142;5.364;2024-03-23T01:43:24;27.33;;;7.88;;
69594;SDS011;56800;52.142;5.364;2024-03-23T01:45:50;31.13;;;8.30;;
69594;SDS011;56800;52.142;5.364;2024-03-23T01:48:19;27.60;;;7.80;;
69594;SDS011;56800;52.142;5.364;2024-03-23T01:50:46;34.85;;;8.48;;
69594;SDS011;56800;52.142;5.364;2024-03-23T01:53:11;32.97;;;8.57;;
69594;SDS011;56800;52.142;5.364;2024-03-23T01:55:38;32.87;;;7.93;;
69594;SDS011;56800;52.142;5.364;2024-03-23T01:58:04;30.98;;;8.00;;
69594;SDS011;56800;52.142;5.364;2024-03-23T02:00:30;33.60;;;7.57;;
69594;SDS011;56800;52.142;5.364;2024-03-23T02:02:56;28.52;;;7.15;;
69594;SDS011;56800;52.142;5.364;2024-03-23T02:05:21;32.63;;;7.50;;
69594;SDS011;56800;52.142;5.364;2024-03-23T02:07:47;28.75;;;7.18;;
69594;SDS011;56800;52.142;5.364;2024-03-23T02:10:13;21.85;;;6.55;;
69594;SDS011;56800;52.142;5.364;2024-03-23T02:12:39;26.52;;;6.47;;
69594;SDS011;56800;52.142;5.364;2024-03-23T02:15:05;33.78;;;7.10;;
69594;SDS011;56800;52.142;5.364;2024-03-23T02:17:34;30.38;;;6.32;;
69594;SDS011;56800;52.142;5.364;2024-03-23T02:20:01;25.43;;;6.23;;
69594;SDS011;56800;52.142;5.364;2024-03-23T02:22:37;26.33;;;6.22;;
69594;SDS011;56800;52.142;5.364;2024-03-23T02:25:04;25.20;;;6.32;;
69594;SDS011;56800;52.142;5.364;2024-03-23T02:27:30;27.02;;;5.65;;
69594;SDS011;56800;52.142;5.364;2024-03-23T02:29:56;26.57;;;5.63;;
69594;SDS011;56800;52.142;5.364;2024-03-23T02:32:22;26.17;;;5.88;;
69594;SDS011;56800;52.142;5.364;2024-03-23T02:34:47;27.63;;;6.03;;
69594;SDS011;56800;52.142;5.364;2024-03-23T02:37:13;25.27;;;5.32;;
69594;SDS011;56800;52.142;5.364;2024-03-23T02:39:39;27.63;;;5.30;;
69594;SDS011;56800;52.142;5.364;2024-03-23T02:42:05;31.20;;;5.60;;
69594;SDS011;56800;52.142;5.364;2024-03-23T02:44:31;27.27;;;5.63;;
69594;SDS011;56800;52.142;5.364;2024-03-23T02:46:56;22.93;;;4.73;;
69594;SDS011;56800;52.142;5.364;2024-03-23T02:49:22;27.00;;;5.45;;
69594;SDS011;56800;52.142;5.364;2024-03-23T02:51:48;25.00;;;5.43;;
69594;SDS011;56800;52.142;5.364;2024-03-23T02:54:14;25.48;;;4.65;;
69594;SDS011;56800;52.142;5.364;2024-03-23T02:56:40;25.13;;;4.70;;
69594;SDS011;56800;52.142;5.364;2024-03-23T02:59:06;22.65;;;4.68;;
69594;SDS011;56800;52.142;5.364;2024-03-23T03:01:31;24.27;;;4.03;;
69594;SDS011;56800;52.142;5.364;2024-03-23T03:03:57;25.60;;;4.87;;
69594;SDS011;56800;52.142;5.364;2024-03-23T03:06:32;19.52;;;4.95;;
69594;SDS011;56800;52.142;5.364;2024-03-23T03:08:58;16.73;;;4.03;;
69594;SDS011;56800;52.142;5.364;2024-03-23T03:11:23;24.27;;;4.43;;
69594;SDS011;56800;52.142;5.364;2024-03-23T03:13:49;27.42;;;3.75;;
69594;SDS011;56800;52.142;5.364;2024-03-23T03:16:15;18.57;;;4.33;;
69594;SDS011;56800;52.142;5.364;2024-03-23T03:18:41;15.85;;;3.30;;
69594;SDS011;56800;52.142;5.364;2024-03-23T03:21:07;20.77;;;3.53;;
69594;SDS011;56800;52.142;5.364;2024-03-23T03:23:36;22.40;;;3.70;;
69594;SDS011;56800;52.142;5.364;2024-03-23T03:26:03;18.63;;;3.53;;
69594;SDS011;56800;52.142;5.364;2024-03-23T03:28:29;17.80;;;2.80;;
69594;SDS011;56800;52.142;5.364;2024-03-23T03:30:56;20.23;;;3.45;;
69594;SDS011;56800;52.142;5.364;2024-03-23T03:33:22;22.20;;;4.00;;
69594;SDS011;56800;52.142;5.364;2024-03-23T03:35:48;18.13;;;3.05;;
69594;SDS011;56800;52.142;5.364;2024-03-23T03:38:14;17.67;;;3.10;;
69594;SDS011;56800;52.142;5.364;2024-03-23T03:40:41;19.13;;;3.30;;
69594;SDS011;56800;52.142;5.364;2024-03-23T03:43:07;18.50;;;3.30;;
69594;SDS011;56800;52.142;5.364;2024-03-23T03:45:33;21.23;;;3.27;;
69594;SDS011;56800;52.142;5.364;2024-03-23T03:47:58;19.70;;;3.10;;
69594;SDS011;56800;52.142;5.364;2024-03-23T03:50:24;13.90;;;3.08;;
69594;SDS011;56800;52.142;5.364;2024-03-23T03:52:50;11.75;;;2.83;;
69594;SDS011;56800;52.142;5.364;2024-03-23T03:55:16;16.63;;;2.85;;
69594;SDS011;56800;52.142;5.364;2024-03-23T03:57:42;16.20;;;3.27;;
69594;SDS011;56800;52.142;5.364;2024-03-23T04:00:07;18.77;;;3.17;;
69594;SDS011;56800;52.142;5.364;2024-03-23T04:02:37;19.48;;;4.15;;
69594;SDS011;56800;52.142;5.364;2024-03-23T04:05:03;15.73;;;3.27;;
69594;SDS011;56800;52.142;5.364;2024-03-23T04:07:29;16.25;;;2.92;;
69594;SDS011;56800;52.142;5.364;2024-03-23T04:09:55;18.98;;;3.42;;
69594;SDS011;56800;52.142;5.364;2024-03-23T04:12:21;20.27;;;3.80;;
69594;SDS011;56800;52.142;5.364;2024-03-23T04:14:46;14.27;;;3.55;;
69594;SDS011;56800;52.142;5.364;2024-03-23T04:17:12;13.83;;;3.10;;
69594;SDS011;56800;52.142;5.364;2024-03-23T04:19:38;22.60;;;3.70;;
69594;SDS011;56800;52.142;5.364;2024-03-23T04:22:04;14.68;;;3.00;;
69594;SDS011;56800;52.142;5.364;2024-03-23T04:24:30;17.47;;;3.67;;
69594;SDS011;56800;52.142;5.364;2024-03-23T04:26:56;20.08;;;3.47;;
69594;SDS011;56800;52.142;5.364;2024-03-23T04:29:22;13.53;;;3.47;;
69594;SDS011;56800;52.142;5.364;2024-03-23T04:31:48;18.75;;;3.67;;
69594;SDS011;56800;52.142;5.364;2024-03-23T04:34:14;21.27;;;4.47;;
69594;SDS011;56800;52.142;5.364;2024-03-23T04:36:40;14.70;;;4.03;;
69594;SDS011;56800;52.142;5.364;2024-03-23T04:39:05;21.07;;;4.50;;
69594;SDS011;56800;52.142;5.364;2024-03-23T04:41:34;19.20;;;3.88;;
69594;SDS011;56800;52.142;5.364;2024-03-23T04:44:00;18.30;;;3.88;;
69594;SDS011;56800;52.142;5.364;2024-03-23T04:46:26;14.85;;;3.67;;
69594;SDS011;56800;52.142;5.364;2024-03-23T04:48:52;18.52;;;3.85;;
69594;SDS011;56800;52.142;5.364;2024-03-23T04:51:21;15.95;;;3.95;;
69594;SDS011;56800;52.142;5.364;2024-03-23T04:53:50;18.42;;;4.00;;
69594;SDS011;56800;52.142;5.364;2024-03-23T04:56:16;17.88;;;4.30;;
69594;SDS011;56800;52.142;5.364;2024-03-23T04:58:42;16.92;;;3.80;;
69594;SDS011;56800;52.142;5.364;2024-03-23T05:01:09;14.98;;;3.20;;
69594;SDS011;56800;52.142;5.364;2024-03-23T05:03:35;21.55;;;4.28;;
69594;SDS011;56800;52.142;5.364;2024-03-23T05:06:01;16.37;;;3.53;;
69594;SDS011;56800;52.142;5.364;2024-03-23T05:08:26;15.20;;;3.55;;
69594;SDS011;56800;52.142;5.364;2024-03-23T05:10:52;15.67;;;3.40;;
69594;SDS011;56800;52.142;5.364;2024-03-23T05:13:18;21.65;;;3.55;;
69594;SDS011;56800;52.142;5.364;2024-03-23T05:15:44;17.17;;;3.23;;
69594;SDS011;56800;52.142;5.364;2024-03-23T05:18:09;11.15;;;3.17;;
69594;SDS011;56800;52.142;5.364;2024-03-23T05:20:35;13.57;;;2.60;;
69594;SDS011;56800;52.142;5.364;2024-03-23T05:23:01;18.50;;;2.97;;
69594;SDS011;56800;52.142;5.364;2024-03-23T05:25:27;15.27;;;3.05;;
69594;SDS011;56800;52.142;5.364;2024-03-23T05:27:52;21.27;;;3.23;;
69594;SDS011;56800;52.142;5.364;2024-03-23T05:30:18;12.82;;;2.88;;
69594;SDS011;56800;52.142;5.364;2024-03-23T05:32:44;17.83;;;2.97;;
69594;SDS011;56800;52.142;5.364;2024-03-23T05:35:10;16.77;;;3.50;;
69594;SDS011;56800;52.142;5.364;2024-03-23T05:37:35;19.07;;;3.17;;
69594;SDS011;56800;52.142;5.364;2024-03-23T05:40:02;17.10;;;2.80;;
69594;SDS011;56800;52.142;5.364;2024-03-23T05:42:29;17.75;;;2.80;;
69594;SDS011;56800;52.142;5.364;2024-03-23T05:44:54;16.90;;;3.40;;
69594;SDS011;56800;52.142;5.364;2024-03-23T05:47:20;13.77;;;2.90;;
69594;SDS011;56800;52.142;5.364;2024-03-23T05:49:46;13.03;;;2.63;;
69594;SDS011;56800;52.142;5.364;2024-03-23T05:52:12;15.05;;;3.13;;
69594;SDS011;56800;52.142;5.364;2024-03-23T05:54:38;23.33;;;3.15;;
69594;SDS011;56800;52.142;5.364;2024-03-23T05:57:04;15.30;;;2.57;;
69594;SDS011;56800;52.142;5.364;2024-03-23T05:59:32;11.57;;;2.28;;
69594;SDS011;56800;52.142;5.364;2024-03-23T06:01:58;11.15;;;2.63;;
69594;SDS011;56800;52.142;5.364;2024-03-23T06:04:24;15.45;;;2.67;;
69594;SDS011;56800;52.142;5.364;2024-03-23T06:06:51;15.30;;;2.87;;
69594;SDS011;56800;52.142;5.364;2024-03-23T06:09:20;10.57;;;2.55;;
69594;SDS011;56800;52.142;5.364;2024-03-23T06:11:45;16.88;;;2.15;;
69594;SDS011;56800;52.142;5.364;2024-03-23T06:14:11;10.93;;;2.30;;
69594;SDS011;56800;52.142;5.364;2024-03-23T06:16:37;14.32;;;2.42;;
69594;SDS011;56800;52.142;5.364;2024-03-23T06:19:03;12.60;;;2.63;;
69594;SDS011;56800;52.142;5.364;2024-03-23T06:21:32;13.65;;;2.72;;
69594;SDS011;56800;52.142;5.364;2024-03-23T06:23:58;19.83;;;2.50;;
69594;SDS011;56800;52.142;5.364;2024-03-23T06:26:24;15.00;;;2.53;;
69594;SDS011;56800;52.142;5.364;2024-03-23T06:28:50;10.70;;;2.42;;
69594;SDS011;56800;52.142;5.364;2024-03-23T06:31:15;15.90;;;2.30;;
69594;SDS011;56800;52.142;5.364;2024-03-23T06:33:41;10.98;;;2.17;;
69594;SDS011;56800;52.142;5.364;2024-03-23T06:36:09;11.35;;;2.20;;
69594;SDS011;56800;52.142;5.364;2024-03-23T06:38:35;10.17;;;2.30;;
69594;SDS011;56800;52.142;5.364;2024-03-23T06:41:02;12.90;;;2.47;;
69594;SDS011;56800;52.142;5.364;2024-03-23T06:43:28;14.93;;;2.33;;
69594;SDS011;56800;52.142;5.364;2024-03-23T06:45:55;11.73;;;2.22;;
69594;SDS011;56800;52.142;5.364;2024-03-23T06:48:21;13.95;;;2.20;;
69594;SDS011;56800;52.142;5.364;2024-03-23T06:50:47;15.47;;;2.50;;
69594;SDS011;56800;52.142;5.364;2024-03-23T06:53:13;16.02;;;2.40;;
69594;SDS011;56800;52.142;5.364;2024-03-23T06:55:39;12.13;;;2.38;;
69594;SDS011;56800;52.142;5.364;2024-03-23T06:58:06;17.67;;;2.37;;
69594;SDS011;56800;52.142;5.364;2024-03-23T07:00:32;15.82;;;3.03;;
69594;SDS011;56800;52.142;5.364;2024-03-23T07:02:59;19.80;;;2.55;;
69594;SDS011;56800;52.142;5.364;2024-03-23T07:05:25;16.10;;;2.05;;
69594;SDS011;56800;52.142;5.364;2024-03-23T07:07:51;10.77;;;2.57;;
69594;SDS011;56800;52.142;5.364;2024-03-23T07:10:17;14.70;;;2.75;;
69594;SDS011;56800;52.142;5.364;2024-03-23T07:12:43;13.43;;;2.50;;
69594;SDS011;56800;52.142;5.364;2024-03-23T07:15:09;14.83;;;2.60;;
69594;SDS011;56800;52.142;5.364;2024-03-23T07:17:35;24.83;;;3.33;;
69594;SDS011;56800;52.142;5.364;2024-03-23T07:20:01;16.42;;;2.25;;
69594;SDS011;56800;52.142;5.364;2024-03-23T07:22:32;14.07;;;2.13;;
69594;SDS011;56800;52.142;5.364;2024-03-23T07:25:01;18.23;;;2.70;;
69594;SDS011;56800;52.142;5.364;2024-03-23T07:27:27;8.77;;;2.47;;
69594;SDS011;56800;52.142;5.364;2024-03-23T07:29:53;11.93;;;2.70;;
69594;SDS011;56800;52.142;5.364;2024-03-23T07:32:20;21.23;;;2.60;;
69594;SDS011;56800;52.142;5.364;2024-03-23T07:34:46;12.40;;;2.70;;
69594;SDS011;56800;52.142;5.364;2024-03-23T07:37:12;12.27;;;2.63;;
69594;SDS011;56800;52.142;5.364;2024-03-23T07:39:39;18.77;;;3.28;;
69594;SDS011;56800;52.142;5.364;2024-03-23T07:42:05;19.23;;;2.40;;
69594;SDS011;56800;52.142;5.364;2024-03-23T07:44:31;8.68;;;2.20;;
69594;SDS011;56800;52.142;5.364;2024-03-23T07:46:56;14.00;;;2.40;;
69594;SDS011;56800;52.142;5.364;2024-03-23T07:49:23;14.45;;;2.58;;
69594;SDS011;56800;52.142;5.364;2024-03-23T07:51:49;14.85;;;2.45;;
69594;SDS011;56800;52.142;5.364;2024-03-23T07:54:15;9.33;;;2.00;;
69594;SDS011;56800;52.142;5.364;2024-03-23T07:56:41;9.85;;;2.00;;
69594;SDS011;56800;52.142;5.364;2024-03-23T07:59:06;9.20;;;2.50;;
69594;SDS011;56800;52.142;5.364;2024-03-23T08:01:32;16.42;;;2.42;;
69594;SDS011;56800;52.142;5.364;2024-03-23T08:03:58;10.03;;;2.40;;
69594;SDS011;56800;52.142;5.364;2024-03-23T08:06:24;16.73;;;2.97;;
69594;SDS011;56800;52.142;5.364;2024-03-23T08:08:57;15.07;;;2.58;;
69594;SDS011;56800;52.142;5.364;2024-03-23T08:11:26;14.97;;;2.30;;
69594;SDS011;56800;52.142;5.364;2024-03-23T08:13:52;16.40;;;2.00;;
69594;SDS011;56800;52.142;5.364;2024-03-23T08:16:18;11.45;;;1.83;;
69594;SDS011;56800;52.142;5.364;2024-03-23T08:18:44;11.77;;;2.10;;
69594;SDS011;56800;52.142;5.364;2024-03-23T08:21:10;14.68;;;2.10;;
69594;SDS011;56800;52.142;5.364;2024-03-23T08:23:36;14.60;;;2.33;;
69594;SDS011;56800;52.142;5.364;2024-03-23T08:26:12;11.95;;;1.83;;
69594;SDS011;56800;52.142;5.364;2024-03-23T08:28:38;10.60;;;1.90;;
69594;SDS011;56800;52.142;5.364;2024-03-23T08:31:08;15.02;;;1.90;;
69594;SDS011;56800;52.142;5.364;2024-03-23T08:33:37;10.00;;;2.00;;
69594;SDS011;56800;52.142;5.364;2024-03-23T08:38:31;10.60;;;1.93;;
69594;SDS011;56800;52.142;5.364;2024-03-23T08:41:01;11.30;;;1.90;;
69594;SDS011;56800;52.142;5.364;2024-03-23T08:43:28;11.30;;;1.88;;
69594;SDS011;56800;52.142;5.364;2024-03-23T08:46:03;11.38;;;1.63;;
69594;SDS011;56800;52.142;5.364;2024-03-23T08:48:36;12.85;;;2.10;;
69594;SDS011;56800;52.142;5.364;2024-03-23T08:51:03;8.17;;;1.70;;
69594;SDS011;56800;52.142;5.364;2024-03-23T08:53:30;15.38;;;2.42;;
69594;SDS011;56800;52.142;5.364;2024-03-23T08:55:57;13.93;;;2.63;;
69594;SDS011;56800;52.142;5.364;2024-03-23T08:58:24;7.85;;;1.50;;
69594;SDS011;56800;52.142;5.364;2024-03-23T09:00:51;12.95;;;2.10;;
69594;SDS011;56800;52.142;5.364;2024-03-23T09:03:17;11.77;;;2.17;;
69594;SDS011;56800;52.142;5.364;2024-03-23T09:05:43;8.32;;;2.03;;
69594;SDS011;56800;52.142;5.364;2024-03-23T09:08:08;17.73;;;1.85;;
69594;SDS011;56800;52.142;5.364;2024-03-23T09:10:41;12.83;;;1.60;;
69594;SDS011;56800;52.142;5.364;2024-03-23T09:13:07;13.93;;;1.98;;
69594;SDS011;56800;52.142;5.364;2024-03-23T09:15:36;6.70;;;1.42;;
69594;SDS011;56800;52.142;5.364;2024-03-23T09:18:10;9.27;;;1.80;;
69594;SDS011;56800;52.142;5.364;2024-03-23T09:20:36;9.40;;;1.67;;
69594;SDS011;56800;52.142;5.364;2024-03-23T09:23:02;14.02;;;2.08;;
69594;SDS011;56800;52.142;5.364;2024-03-23T09:25:28;11.77;;;1.73;;
69594;SDS011;56800;52.142;5.364;2024-03-23T09:28:00;9.20;;;1.60;;
69594;SDS011;56800;52.142;5.364;2024-03-23T09:30:26;9.35;;;1.38;;
69594;SDS011;56800;52.142;5.364;2024-03-23T09:32:51;12.47;;;1.60;;
69594;SDS011;56800;52.142;5.364;2024-03-23T09:35:17;10.65;;;1.40;;
69594;SDS011;56800;52.142;5.364;2024-03-23T09:37:43;11.87;;;1.80;;
69594;SDS011;56800;52.142;5.364;2024-03-23T09:40:10;11.23;;;2.17;;
69594;SDS011;56800;52.142;5.364;2024-03-23T09:42:37;11.05;;;1.98;;
69594;SDS011;56800;52.142;5.364;2024-03-23T09:45:06;13.23;;;2.25;;
69594;SDS011;56800;52.142;5.364;2024-03-23T09:47:41;12.50;;;2.20;;
69594;SDS011;56800;52.142;5.364;2024-03-23T09:50:08;11.97;;;1.90;;
69594;SDS011;56800;52.142;5.364;2024-03-23T09:52:34;10.70;;;2.08;;
69594;SDS011;56800;52.142;5.364;2024-03-23T09:55:00;12.57;;;2.00;;
69594;SDS011;56800;52.142;5.364;2024-03-23T09:57:26;12.23;;;2.27;;
69594;SDS011;56800;52.142;5.364;2024-03-23T09:59:51;12.13;;;2.47;;
69594;SDS011;56800;52.142;5.364;2024-03-23T10:02:18;14.52;;;2.17;;
69594;SDS011;56800;52.142;5.364;2024-03-23T10:04:45;14.90;;;2.40;;
69594;SDS011;56800;52.142;5.364;2024-03-23T10:07:15;10.38;;;2.50;;
69594;SDS011;56800;52.142;5.364;2024-03-23T10:09:43;13.50;;;1.73;;
69594;SDS011;56800;52.142;5.364;2024-03-23T10:12:13;9.60;;;1.98;;
69594;SDS011;56800;52.142;5.364;2024-03-23T10:14:40;13.93;;;2.17;;
69594;SDS011;56800;52.142;5.364;2024-03-23T10:19:46;10.55;;;1.88;;
69594;SDS011;56800;52.142;5.364;2024-03-23T10:22:18;15.13;;;2.03;;
69594;SDS011;56800;52.142;5.364;2024-03-23T10:24:45;14.68;;;2.47;;
69594;SDS011;56800;52.142;5.364;2024-03-23T10:27:15;11.73;;;2.03;;
69594;SDS011;56800;52.142;5.364;2024-03-23T10:29:48;8.65;;;2.28;;
69594;SDS011;56800;52.142;5.364;2024-03-23T10:32:15;10.60;;;1.90;;
69594;SDS011;56800;52.142;5.364;2024-03-23T10:34:42;9.90;;;1.75;;
69594;SDS011;56800;52.142;5.364;2024-03-23T10:37:08;10.80;;;1.85;;
69594;SDS011;56800;52.142;5.364;2024-03-23T10:39:36;12.83;;;2.00;;
69594;SDS011;56800;52.142;5.364;2024-03-23T10:42:03;12.10;;;1.83;;
69594;SDS011;56800;52.142;5.364;2024-03-23T10:44:34;10.73;;;2.15;;
69594;SDS011;56800;52.142;5.364;2024-03-23T10:47:00;11.70;;;1.98;;
69594;SDS011;56800;52.142;5.364;2024-03-23T10:49:27;8.57;;;1.58;;
69594;SDS011;56800;52.142;5.364;2024-03-23T10:51:55;12.17;;;2.20;;
69594;SDS011;56800;52.142;5.364;2024-03-23T10:54:25;10.88;;;2.35;;
69594;SDS011;56800;52.142;5.364;2024-03-23T10:56:53;8.35;;;2.00;;
69594;SDS011;56800;52.142;5.364;2024-03-23T10:59:28;10.73;;;1.52;;
69594;SDS011;56800;52.142;5.364;2024-03-23T11:04:32;10.30;;;1.70;;
69594;SDS011;56800;52.142;5.364;2024-03-23T11:06:59;9.20;;;1.77;;
69594;SDS011;56800;52.142;5.364;2024-03-23T11:14:54;11.65;;;2.28;;
69594;SDS011;56800;52.142;5.364;2024-03-23T11:17:23;10.27;;;1.90;;
69594;SDS011;56800;52.142;5.364;2024-03-23T11:25:15;12.73;;;2.00;;
69594;SDS011;56800;52.142;5.364;2024-03-23T11:27:49;12.10;;;2.20;;
69594;SDS011;56800;52.142;5.364;2024-03-23T11:30:25;16.67;;;1.90;;
69594;SDS011;56800;52.142;5.364;2024-03-23T11:32:56;9.68;;;1.73;;
69594;SDS011;56800;52.142;5.364;2024-03-23T11:40:49;11.38;;;2.15;;
69594;SDS011;56800;52.142;5.364;2024-03-23T11:43:16;11.50;;;2.07;;
69594;SDS011;56800;52.142;5.364;2024-03-23T11:48:11;8.80;;;1.60;;
69594;SDS011;56800;52.142;5.364;2024-03-23T11:50:39;8.90;;;2.38;;
69594;SDS011;56800;52.142;5.364;2024-03-23T11:53:07;7.93;;;1.52;;
69594;SDS011;56800;52.142;5.364;2024-03-23T11:58:15;12.20;;;1.88;;
69594;SDS011;56800;52.142;5.364;2024-03-23T12:03:17;11.07;;;2.10;;
69594;SDS011;56800;52.142;5.364;2024-03-23T12:05:47;9.65;;;1.70;;
69594;SDS011;56800;52.142;5.364;2024-03-23T12:11:11;8.65;;;1.58;;
69594;SDS011;56800;52.142;5.364;2024-03-23T12:13:38;9.40;;;1.88;;
69594;SDS011;56800;52.142;5.364;2024-03-23T12:18:40;12.30;;;2.28;;
69594;SDS011;56800;52.142;5.364;2024-03-23T12:21:07;15.03;;;1.87;;
69594;SDS011;56800;52.142;5.364;2024-03-23T12:23:33;10.63;;;2.10;;
69594;SDS011;56800;52.142;5.364;2024-03-23T12:26:00;8.07;;;1.50;;
69594;SDS011;56800;52.142;5.364;2024-03-23T12:28:26;11.25;;;1.70;;
69594;SDS011;56800;52.142;5.364;2024-03-23T12:30:52;11.13;;;1.70;;
69594;SDS011;56800;52.142;5.364;2024-03-23T12:33:19;12.47;;;3.33;;
69594;SDS011;56800;52.142;5.364;2024-03-23T12:35:46;14.98;;;2.13;;
69594;SDS011;56800;52.142;5.364;2024-03-23T12:38:12;13.40;;;2.25;;
69594;SDS011;56800;52.142;5.364;2024-03-23T12:40:38;11.35;;;2.05;;
69594;SDS011;56800;52.142;5.364;2024-03-23T12:43:04;15.40;;;2.25;;
69594;SDS011;56800;52.142;5.364;2024-03-23T12:45:29;9.80;;;1.90;;
69594;SDS011;56800;52.142;5.364;2024-03-23T12:47:55;9.05;;;1.95;;
69594;SDS011;56800;52.142;5.364;2024-03-23T12:50:21;11.63;;;1.93;;
69594;SDS011;56800;52.142;5.364;2024-03-23T12:52:47;11.63;;;2.00;;
69594;SDS011;56800;52.142;5.364;2024-03-23T12:55:13;8.82;;;1.60;;
69594;SDS011;56800;52.142;5.364;2024-03-23T12:57:39;10.23;;;1.80;;
69594;SDS011;56800;52.142;5.364;2024-03-23T13:00:06;10.95;;;2.08;;
69594;SDS011;56800;52.142;5.364;2024-03-23T13:02:34;8.75;;;1.75;;
69594;SDS011;56800;52.142;5.364;2024-03-23T13:05:00;8.40;;;1.70;;
69594;SDS011;56800;52.142;5.364;2024-03-23T13:07:26;11.05;;;2.13;;
69594;SDS011;56800;52.142;5.364;2024-03-23T13:09:52;11.83;;;1.80;;
69594;SDS011;56800;52.142;5.364;2024-03-23T13:12:21;10.57;;;1.63;;
69594;SDS011;56800;52.142;5.364;2024-03-23T13:14:47;8.90;;;1.83;;
69594;SDS011;56800;52.142;5.364;2024-03-23T13:17:13;9.88;;;2.05;;
69594;SDS011;56800;52.142;5.364;2024-03-23T13:19:39;6.70;;;1.53;;
69594;SDS011;56800;52.142;5.364;2024-03-23T13:22:06;9.30;;;1.60;;
69594;SDS011;56800;52.142;5.364;2024-03-23T13:24:31;6.22;;;1.10;;
69594;SDS011;56800;52.142;5.364;2024-03-23T13:26:57;5.33;;;1.10;;
69594;SDS011;56800;52.142;5.364;2024-03-23T13:29:24;5.65;;;0.80;;
69594;SDS011;56800;52.142;5.364;2024-03-23T13:31:50;2.50;;;0.75;;
69594;SDS011;56800;52.142;5.364;2024-03-23T13:34:16;3.15;;;0.77;;
69594;SDS011;56800;52.142;5.364;2024-03-23T13:36:43;3.97;;;0.90;;
69594;SDS011;56800;52.142;5.364;2024-03-23T13:39:10;4.40;;;0.90;;
69594;SDS011;56800;52.142;5.364;2024-03-23T13:41:40;3.50;;;0.90;;
69594;SDS011;56800;52.142;5.364;2024-03-23T13:44:07;3.88;;;1.00;;
69594;SDS011;56800;52.142;5.364;2024-03-23T13:46:33;4.78;;;1.27;;
69594;SDS011;56800;52.142;5.364;2024-03-23T13:48:59;5.93;;;1.00;;
69594;SDS011;56800;52.142;5.364;2024-03-23T13:51:26;9.93;;;1.95;;
69594;SDS011;56800;52.142;5.364;2024-03-23T13:53:55;7.88;;;1.55;;
69594;SDS011;56800;52.142;5.364;2024-03-23T13:56:24;9.48;;;1.50;;
69594;SDS011;56800;52.142;5.364;2024-03-23T13:58:50;10.38;;;1.50;;
69594;SDS011;56800;52.142;5.364;2024-03-23T14:01:16;8.13;;;1.73;;
69594;SDS011;56800;52.142;5.364;2024-03-23T14:03:43;11.88;;;1.92;;
69594;SDS011;56800;52.142;5.364;2024-03-23T14:06:09;11.23;;;1.73;;
69594;SDS011;56800;52.142;5.364;2024-03-23T14:08:35;9.00;;;2.47;;
69594;SDS011;56800;52.142;5.364;2024-03-23T14:11:04;13.85;;;2.38;;
69594;SDS011;56800;52.142;5.364;2024-03-23T14:13:31;10.15;;;2.08;;
69594;SDS011;56800;52.142;5.364;2024-03-23T14:15:57;10.23;;;1.60;;
69594;SDS011;56800;52.142;5.364;2024-03-23T14:18:23;12.98;;;2.05;;
69594;SDS011;56800;52.142;5.364;2024-03-23T14:20:51;7.13;;;1.70;;
69594;SDS011;56800;52.142;5.364;2024-03-23T14:23:18;8.20;;;1.63;;
69594;SDS011;56800;52.142;5.364;2024-03-23T14:25:44;10.43;;;1.83;;
69594;SDS011;56800;52.142;5.364;2024-03-23T14:28:10;12.25;;;1.55;;
69594;SDS011;56800;52.142;5.364;2024-03-23T14:30:42;10.37;;;2.30;;
69594;SDS011;56800;52.142;5.364;2024-03-23T14:33:08;9.70;;;1.92;;
69594;SDS011;56800;52.142;5.364;2024-03-23T14:35:34;13.77;;;1.65;;
69594;SDS011;56800;52.142;5.364;2024-03-23T14:38:01;10.27;;;2.05;;
69594;SDS011;56800;52.142;5.364;2024-03-23T14:40:28;7.75;;;1.63;;
69594;SDS011;56800;52.142;5.364;2024-03-23T14:42:54;6.70;;;1.70;;
69594;SDS011;56800;52.142;5.364;2024-03-23T14:45:23;6.70;;;1.30;;
69594;SDS011;56800;52.142;5.364;2024-03-23T14:47:53;8.38;;;1.67;;
69594;SDS011;56800;52.142;5.364;2024-03-23T14:50:18;6.93;;;1.30;;
69594;SDS011;56800;52.142;5.364;2024-03-23T14:52:45;10.43;;;1.45;;
69594;SDS011;56800;52.142;5.364;2024-03-23T14:55:14;7.23;;;1.40;;
69594;SDS011;56800;52.142;5.364;2024-03-23T14:57:40;8.40;;;1.38;;
69594;SDS011;56800;52.142;5.364;2024-03-23T15:00:06;9.07;;;1.50;;
69594;SDS011;56800;52.142;5.364;2024-03-23T15:02:33;10.50;;;1.77;;
69594;SDS011;56800;52.142;5.364;2024-03-23T15:05:00;7.25;;;1.63;;
69594;SDS011;56800;52.142;5.364;2024-03-23T15:07:26;8.57;;;1.33;;
69594;SDS011;56800;52.142;5.364;2024-03-23T15:09:53;8.82;;;1.65;;
69594;SDS011;56800;52.142;5.364;2024-03-23T15:12:19;6.87;;;1.73;;
69594;SDS011;56800;52.142;5.364;2024-03-23T15:14:44;13.90;;;1.65;;
69594;SDS011;56800;52.142;5.364;2024-03-23T15:17:11;7.13;;;1.63;;
69594;SDS011;56800;52.142;5.364;2024-03-23T15:19:37;6.47;;;1.23;;
69594;SDS011;56800;52.142;5.364;2024-03-23T15:22:02;8.27;;;1.48;;
69594;SDS011;56800;52.142;5.364;2024-03-23T15:24:28;7.10;;;1.60;;
69594;SDS011;56800;52.142;5.364;2024-03-23T15:26:54;5.30;;;1.25;;
69594;SDS011;56800;52.142;5.364;2024-03-23T15:29:23;8.47;;;1.50;;
69594;SDS011;56800;52.142;5.364;2024-03-23T15:31:49;6.28;;;1.73;;
69594;SDS011;56800;52.142;5.364;2024-03-23T15:34:18;9.75;;;1.80;;
69594;SDS011;56800;52.142;5.364;2024-03-23T15:36:47;9.20;;;1.95;;
69594;SDS011;56800;52.142;5.364;2024-03-23T15:39:16;13.20;;;2.17;;
69594;SDS011;56800;52.142;5.364;2024-03-23T15:41:45;6.60;;;1.80;;
69594;SDS011;56800;52.142;5.364;2024-03-23T15:44:11;7.88;;;1.60;;
69594;SDS011;56800;52.142;5.364;2024-03-23T15:46:37;7.25;;;1.45;;
69594;SDS011;56800;52.142;5.364;2024-03-23T15:49:03;10.50;;;1.52;;
69594;SDS011;56800;52.142;5.364;2024-03-23T15:51:30;7.27;;;1.43;;
69594;SDS011;56800;52.142;5.364;2024-03-23T15:53:58;8.65;;;1.73;;
69594;SDS011;56800;52.142;5.364;2024-03-23T15:56:24;9.13;;;1.90;;
69594;SDS011;56800;52.142;5.364;2024-03-23T15:58:50;7.75;;;1.42;;
69594;SDS011;56800;52.142;5.364;2024-03-23T16:01:16;8.67;;;1.70;;
69594;SDS011;56800;52.142;5.364;2024-03-23T16:03:42;8.23;;;1.48;;